createdAt,value
2019-05-21T00:01:11.836Z,34.77
2019-05-21T00:03:43.124Z,36.70
2019-05-21T00:06:14.412Z,39.87
2019-05-21T00:08:46.335Z,37.00
2019-05-21T00:11:17.934Z,38.30
2019-05-21T00:13:49.614Z,38.20
2019-05-21T00:16:20.955Z,37.00
2019-05-21T00:18:52.256Z,34.40
2019-05-21T00:21:24.172Z,35.27
2019-05-21T00:23:56.025Z,37.70
2019-05-21T00:26:27.366Z,36.77
2019-05-21T00:29:53.857Z,41.53
2019-05-21T00:33:19.838Z,39.97
2019-05-21T00:36:45.445Z,44.70
2019-05-21T00:40:10.796Z,50.47
2019-05-21T00:42:46.262Z,55.87
2019-05-21T00:45:17.641Z,58.63
2019-05-21T00:47:49.747Z,55.20
2019-05-21T00:50:21.267Z,65.43
2019-05-21T00:52:53.817Z,71.20
2019-05-21T00:55:25.620Z,73.20
2019-05-21T00:57:56.991Z,74.47
2019-05-21T01:00:28.619Z,66.60
2019-05-21T01:03:00.890Z,67.93
2019-05-21T01:05:32.531Z,68.80
2019-05-21T01:08:03.788Z,68.00
2019-05-21T01:10:35.130Z,63.00
2019-05-21T01:13:07.069Z,58.97
2019-05-21T01:15:38.937Z,67.60
2019-05-21T01:18:10.576Z,72.93
2019-05-21T01:20:42.121Z,68.23
2019-05-21T01:23:13.743Z,70.93
2019-05-21T01:25:45.373Z,72.10
2019-05-21T01:28:17.568Z,73.50
2019-05-21T01:30:48.697Z,75.03
2019-05-21T01:33:20.305Z,75.43
2019-05-21T01:35:51.889Z,64.53
2019-05-21T01:38:23.240Z,70.23
2019-05-21T01:40:54.760Z,70.20
2019-05-21T01:43:26.611Z,62.63
2019-05-21T01:45:58.013Z,59.57
2019-05-21T01:48:29.360Z,59.73
2019-05-21T01:51:00.426Z,63.23
2019-05-21T01:53:31.708Z,62.43
2019-05-21T01:56:02.979Z,61.67
2019-05-21T01:58:34.594Z,63.30
2019-05-21T02:01:06.278Z,65.63
2019-05-21T02:03:37.535Z,69.97
2019-05-21T02:06:09.670Z,69.70
2019-05-21T02:08:41.455Z,70.60
2019-05-21T02:11:13.321Z,69.33
2019-05-21T02:13:45.275Z,72.03
2019-05-21T02:16:16.351Z,75.70
2019-05-21T02:18:48.100Z,71.50
2019-05-21T02:21:19.718Z,72.23
2019-05-21T02:23:52.136Z,74.80
2019-05-21T02:26:23.423Z,70.63
2019-05-21T02:28:55.555Z,67.77
2019-05-21T02:31:27.355Z,72.70
2019-05-21T02:33:58.871Z,72.67
2019-05-21T02:36:30.164Z,75.00
2019-05-21T02:39:02.247Z,74.43
2019-05-21T02:41:34.715Z,74.77
2019-05-21T02:44:06.348Z,70.87
2019-05-21T02:46:37.398Z,71.27
2019-05-21T02:49:09.258Z,83.57
2019-05-21T02:51:41.203Z,81.53
2019-05-21T02:54:13.012Z,79.20
2019-05-21T02:56:44.639Z,79.93
2019-05-21T02:59:16.631Z,83.00
2019-05-21T03:02:06.888Z,80.10
2019-05-21T03:04:38.245Z,77.70
2019-05-21T03:07:18.454Z,85.60
2019-05-21T03:09:53.346Z,82.40
2019-05-21T03:12:25.284Z,75.73
2019-05-21T03:14:56.596Z,81.67
2019-05-21T03:17:27.961Z,66.57
2019-05-21T03:20:00.054Z,68.63
2019-05-21T03:22:31.935Z,71.93
2019-05-21T03:25:03.846Z,67.70
2019-05-21T03:27:35.431Z,53.30
2019-05-21T03:30:07.351Z,54.60
2019-05-21T03:32:39.217Z,53.47
2019-05-21T03:35:11.859Z,57.47
2019-05-21T03:37:43.180Z,53.37
2019-05-21T03:40:15.232Z,56.53
2019-05-21T03:42:47.093Z,57.40
2019-05-21T03:45:18.728Z,61.50
2019-05-21T03:47:50.624Z,50.63
2019-05-21T03:50:22.434Z,53.97
2019-05-21T03:52:55.554Z,50.47
2019-05-21T03:55:27.248Z,58.43
2019-05-21T03:57:58.868Z,57.10
2019-05-21T04:00:31.021Z,62.10
2019-05-21T04:03:02.554Z,61.70
2019-05-21T04:05:33.858Z,58.33
2019-05-21T04:08:06.195Z,57.40
2019-05-21T04:10:37.518Z,54.07
2019-05-21T04:13:09.724Z,57.87
2019-05-21T04:16:07.163Z,55.60
2019-05-21T04:18:43.565Z,50.03
2019-05-21T04:21:14.990Z,46.83
2019-05-21T04:23:46.722Z,45.20
2019-05-21T04:26:17.764Z,45.47
2019-05-21T04:28:48.867Z,47.50
2019-05-21T04:31:20.169Z,41.63
2019-05-21T04:34:31.600Z,42.87
2019-05-21T04:37:11.112Z,41.00
2019-05-21T04:39:36.465Z,39.10
2019-05-21T04:42:08.286Z,39.10
2019-05-21T04:44:40.220Z,35.23
2019-05-21T04:47:12.114Z,35.90
2019-05-21T04:49:43.406Z,31.20
2019-05-21T04:52:14.965Z,34.63
2019-05-21T04:54:46.611Z,30.37
2019-05-21T04:57:17.626Z,37.70
2019-05-21T04:59:49.261Z,34.77
2019-05-21T05:02:20.882Z,31.73
2019-05-21T05:04:52.965Z,35.50
2019-05-21T05:07:28.239Z,32.50
2019-05-21T05:09:57.018Z,31.83
2019-05-21T05:12:28.951Z,27.33
2019-05-21T05:15:00.558Z,27.90
2019-05-21T05:17:31.972Z,27.27
2019-05-21T05:20:03.618Z,26.70
2019-05-21T05:22:34.965Z,27.60
2019-05-21T05:25:08.039Z,27.13
2019-05-21T05:27:39.637Z,27.10
2019-05-21T05:30:11.469Z,24.13
2019-05-21T05:32:42.786Z,24.90
2019-05-21T05:35:14.339Z,25.63
2019-05-21T05:37:48.816Z,27.87
2019-05-21T05:40:21.281Z,27.10
2019-05-21T05:42:52.958Z,26.70
2019-05-21T05:45:24.630Z,27.27
2019-05-21T05:47:57.304Z,27.30
2019-05-21T05:50:32.323Z,28.77
2019-05-21T05:53:03.976Z,27.20
2019-05-21T05:55:35.290Z,30.00
2019-05-21T05:58:07.371Z,30.83
2019-05-21T06:00:38.941Z,28.90
2019-05-21T06:03:10.493Z,26.50
2019-05-21T06:05:42.149Z,25.33
2019-05-21T06:08:13.929Z,24.77
2019-05-21T06:10:44.970Z,24.83
2019-05-21T06:13:16.496Z,24.27
2019-05-21T06:15:48.139Z,26.03
2019-05-21T06:18:19.904Z,22.80
2019-05-21T06:20:51.327Z,24.57
2019-05-21T06:23:22.911Z,23.20
2019-05-21T06:25:55.852Z,25.23
2019-05-21T06:28:28.174Z,22.77
2019-05-21T06:30:59.723Z,23.57
2019-05-21T06:33:31.275Z,20.73
2019-05-21T06:36:02.625Z,19.73
2019-05-21T06:38:34.851Z,16.97
2019-05-21T06:41:06.046Z,15.73
2019-05-21T06:43:37.381Z,16.33
2019-05-21T06:46:09.038Z,16.27
2019-05-21T06:48:40.514Z,14.73
2019-05-21T06:51:12.248Z,14.87
2019-05-21T06:53:43.865Z,15.13
2019-05-21T06:56:15.766Z,15.73
2019-05-21T06:58:47.308Z,16.60
2019-05-21T07:01:27.139Z,15.83
2019-05-21T07:03:52.694Z,14.53
2019-05-21T07:06:25.139Z,15.93
2019-05-21T07:08:57.750Z,16.00
2019-05-21T07:11:29.281Z,16.20
2019-05-21T07:14:00.857Z,15.93
2019-05-21T07:16:32.789Z,14.87
2019-05-21T07:19:03.795Z,14.97
2019-05-21T07:21:35.508Z,13.23
2019-05-21T07:24:07.803Z,11.23
2019-05-21T07:26:39.444Z,12.00
2019-05-21T07:29:11.068Z,11.53
2019-05-21T07:31:42.508Z,11.17
2019-05-21T07:34:13.784Z,9.77
2019-05-21T07:36:45.111Z,10.80
2019-05-21T07:39:16.135Z,12.00
2019-05-21T07:41:47.422Z,12.33
2019-05-21T07:44:19.112Z,13.00
2019-05-21T07:46:50.502Z,14.03
2019-05-21T07:49:25.112Z,13.47
2019-05-21T07:51:55.368Z,14.00
2019-05-21T07:54:28.194Z,13.57
2019-05-21T07:57:00.985Z,13.23
2019-05-21T07:59:32.001Z,12.37
2019-05-21T08:02:03.628Z,12.30
2019-05-21T08:04:35.553Z,12.10
2019-05-21T08:07:06.907Z,12.47
2019-05-21T08:09:38.487Z,11.97
2019-05-21T08:12:27.747Z,11.70
2019-05-21T08:14:43.037Z,12.03
2019-05-21T08:17:14.622Z,12.27
2019-05-21T08:19:45.644Z,12.63
2019-05-21T08:22:17.293Z,13.30
2019-05-21T08:24:48.982Z,12.20
2019-05-21T08:27:21.424Z,11.43
2019-05-21T08:29:52.435Z,11.60
2019-05-21T08:32:23.466Z,11.00
2019-05-21T08:34:54.818Z,14.13
2019-05-21T08:37:26.487Z,11.67
2019-05-21T08:39:58.315Z,11.07
2019-05-21T08:42:30.005Z,10.13
2019-05-21T08:45:03.677Z,8.57
2019-05-21T08:47:36.771Z,8.43
2019-05-21T08:50:08.744Z,9.87
2019-05-21T08:52:40.298Z,9.20
2019-05-21T08:55:13.033Z,9.27
2019-05-21T08:57:44.856Z,9.93
2019-05-21T09:00:19.009Z,10.90
2019-05-21T09:02:50.806Z,11.10
2019-05-21T09:05:22.664Z,11.30
2019-05-21T09:07:54.243Z,10.20
2019-05-21T09:10:26.205Z,9.20
2019-05-21T09:12:57.606Z,8.90
2019-05-21T09:15:28.889Z,9.50
2019-05-21T09:18:00.161Z,9.07
2019-05-21T09:20:31.687Z,9.87
2019-05-21T09:23:03.368Z,9.60
2019-05-21T09:25:34.680Z,9.37
2019-05-21T09:28:06.152Z,9.97
2019-05-21T09:30:37.785Z,8.90
2019-05-21T09:33:09.520Z,9.23
2019-05-21T09:35:40.752Z,9.50
2019-05-21T09:38:12.358Z,9.07
2019-05-21T09:40:43.672Z,9.43
2019-05-21T09:43:15.209Z,8.70
2019-05-21T09:45:46.593Z,8.80
2019-05-21T09:48:18.020Z,7.03
2019-05-21T09:50:49.926Z,7.70
2019-05-21T09:53:21.017Z,8.37
2019-05-21T09:55:52.391Z,8.07
2019-05-21T09:58:36.547Z,8.07
2019-05-21T10:01:29.688Z,8.20
2019-05-21T10:04:00.739Z,8.73
2019-05-21T10:06:32.100Z,8.87
2019-05-21T10:09:04.767Z,8.13
2019-05-21T10:11:36.950Z,7.40
2019-05-21T10:14:10.111Z,8.23
2019-05-21T10:16:41.485Z,7.80
2019-05-21T10:19:13.108Z,8.73
2019-05-21T10:21:44.596Z,9.10
2019-05-21T10:24:16.244Z,8.40
2019-05-21T10:26:47.626Z,8.17
2019-05-21T10:29:19.326Z,7.00
2019-05-21T10:31:50.910Z,6.43
2019-05-21T10:34:22.065Z,7.07
2019-05-21T10:36:54.220Z,6.93
2019-05-21T10:39:25.763Z,6.70
2019-05-21T10:41:58.618Z,6.67
2019-05-21T10:44:30.725Z,7.07
2019-05-21T10:47:02.417Z,7.40
2019-05-21T10:49:33.651Z,7.47
2019-05-21T10:52:05.234Z,6.60
2019-05-21T10:54:36.789Z,6.60
2019-05-21T10:57:08.478Z,6.67
2019-05-21T10:59:40.143Z,5.97
2019-05-21T11:02:24.397Z,7.07
2019-05-21T11:05:05.774Z,7.07
2019-05-21T11:07:37.407Z,7.70
2019-05-21T11:10:11.353Z,7.37
2019-05-21T11:12:43.149Z,8.57
2019-05-21T11:15:15.801Z,7.63
2019-05-21T11:17:59.149Z,6.57
2019-05-21T11:20:20.536Z,6.80
2019-05-21T11:22:51.874Z,6.23
2019-05-21T11:25:23.206Z,5.90
2019-05-21T11:27:54.853Z,7.00
2019-05-21T11:30:26.528Z,5.93
2019-05-21T11:32:58.244Z,5.90
2019-05-21T11:35:29.406Z,6.37
2019-05-21T11:38:00.663Z,5.60
2019-05-21T11:40:32.735Z,5.53
2019-05-21T11:43:04.114Z,5.07
2019-05-21T11:45:35.992Z,5.13
2019-05-21T11:48:07.969Z,5.50
2019-05-21T11:50:39.962Z,6.00
2019-05-21T11:53:11.880Z,5.43
2019-05-21T11:55:43.587Z,4.93
2019-05-21T11:58:15.738Z,13.43
2019-05-21T12:00:47.163Z,14.20
2019-05-21T12:03:19.553Z,15.87
2019-05-21T12:05:51.039Z,16.13
2019-05-21T12:08:22.089Z,15.20
2019-05-21T12:10:53.703Z,15.50
2019-05-21T12:13:25.012Z,18.37
2019-05-21T12:15:56.713Z,15.47
2019-05-21T12:18:27.747Z,16.53
2019-05-21T12:20:59.660Z,24.67
2019-05-21T12:23:31.387Z,30.47
2019-05-21T12:26:03.139Z,15.67
2019-05-21T12:28:35.148Z,14.37
2019-05-21T12:31:06.923Z,14.87
2019-05-21T12:33:38.843Z,17.27
2019-05-21T12:36:10.463Z,22.13
2019-05-21T12:38:41.804Z,19.60
2019-05-21T12:41:14.133Z,21.13
2019-05-21T12:43:45.817Z,13.23
2019-05-21T12:46:17.967Z,12.27
2019-05-21T12:48:49.333Z,11.70
2019-05-21T12:51:20.695Z,11.47
2019-05-21T12:53:51.746Z,11.00
2019-05-21T12:56:23.100Z,12.20
2019-05-21T12:58:54.937Z,9.80
2019-05-21T13:01:26.383Z,9.30
2019-05-21T13:03:58.259Z,11.23
2019-05-21T13:06:30.002Z,9.73
2019-05-21T13:09:01.372Z,9.43
2019-05-21T13:11:34.314Z,7.83
2019-05-21T13:14:06.448Z,7.50
2019-05-21T13:16:38.152Z,7.53
2019-05-21T13:19:11.302Z,7.23
2019-05-21T13:21:44.267Z,6.43
2019-05-21T13:24:16.113Z,6.83
2019-05-21T13:26:47.712Z,6.77
2019-05-21T13:29:19.064Z,8.43
2019-05-21T13:31:51.071Z,7.10
2019-05-21T13:34:22.828Z,7.83
2019-05-21T13:36:53.849Z,6.70
2019-05-21T13:39:25.880Z,7.20
2019-05-21T13:41:59.107Z,7.40
2019-05-21T13:44:30.641Z,7.60
2019-05-21T13:47:01.807Z,7.47
2019-05-21T13:49:33.058Z,7.27
2019-05-21T13:52:04.592Z,7.43
2019-05-21T13:54:36.277Z,8.33
2019-05-21T13:57:08.032Z,7.60
2019-05-21T13:59:40.093Z,8.13
2019-05-21T14:02:14.507Z,7.33
2019-05-21T14:04:46.424Z,7.40
2019-05-21T14:07:18.117Z,7.53
2019-05-21T14:10:12.131Z,8.13
2019-05-21T14:12:22.675Z,8.77
2019-05-21T14:14:54.622Z,9.23
2019-05-21T14:17:26.069Z,9.80
2019-05-21T14:19:57.693Z,9.00
2019-05-21T14:22:29.523Z,10.30
2019-05-21T14:25:01.132Z,10.97
2019-05-21T14:27:43.740Z,11.53
2019-05-21T14:30:07.053Z,12.77
2019-05-21T14:32:38.344Z,10.03
2019-05-21T14:35:11.066Z,10.40
2019-05-21T14:37:42.649Z,9.53
2019-05-21T14:40:30.947Z,10.07
2019-05-21T14:42:59.207Z,10.27
2019-05-21T14:45:23.836Z,9.77
2019-05-21T14:47:54.856Z,9.00
2019-05-21T14:50:25.856Z,9.43
2019-05-21T14:52:57.198Z,7.80
2019-05-21T14:55:28.868Z,6.20
2019-05-21T14:57:59.889Z,6.90
2019-05-21T15:00:37.107Z,8.77
2019-05-21T15:03:23.896Z,5.77
2019-05-21T15:05:41.731Z,5.20
2019-05-21T15:08:13.407Z,7.03
2019-05-21T15:10:48.877Z,5.33
2019-05-21T15:13:17.938Z,5.30
2019-05-21T15:15:48.984Z,5.50
2019-05-21T15:18:22.309Z,6.53
2019-05-21T15:21:08.647Z,6.17
2019-05-21T15:23:40.715Z,7.70
2019-05-21T15:26:12.921Z,10.07
2019-05-21T15:28:44.483Z,10.03
2019-05-21T15:31:16.363Z,11.83
2019-05-21T15:33:48.601Z,12.27
2019-05-21T15:36:19.981Z,15.83
2019-05-21T15:38:51.836Z,13.60
2019-05-21T15:41:23.557Z,12.43
2019-05-21T15:43:55.310Z,14.93
2019-05-21T15:46:27.501Z,15.33
2019-05-21T15:48:59.129Z,15.80
2019-05-21T15:51:30.462Z,17.40
2019-05-21T15:54:02.129Z,14.93
2019-05-21T15:56:34.115Z,19.77
2019-05-21T15:59:06.654Z,18.33
2019-05-21T16:01:40.747Z,18.97
2019-05-21T16:04:16.364Z,17.67
2019-05-21T16:06:46.892Z,17.30
2019-05-21T16:09:18.905Z,15.57
2019-05-21T16:11:50.276Z,14.77
2019-05-21T16:14:21.616Z,14.13
2019-05-21T16:16:52.954Z,15.67
2019-05-21T16:19:24.311Z,14.90
2019-05-21T16:21:56.158Z,16.97
2019-05-21T16:24:27.538Z,15.00
2019-05-21T16:26:59.477Z,17.17
2019-05-21T16:29:30.858Z,15.73
2019-05-21T16:32:01.995Z,15.30
2019-05-21T16:34:33.980Z,17.97
2019-05-21T16:37:05.814Z,14.57
2019-05-21T16:39:37.908Z,18.50
2019-05-21T16:42:09.650Z,17.27
2019-05-21T16:44:41.102Z,20.27
2019-05-21T16:47:13.072Z,15.13
2019-05-21T16:49:44.574Z,15.83
2019-05-21T16:52:16.614Z,15.87
2019-05-21T16:54:48.826Z,14.40
2019-05-21T16:57:20.872Z,15.27
2019-05-21T16:59:52.479Z,15.20
2019-05-21T17:02:23.751Z,15.37
2019-05-21T17:04:55.076Z,14.80
2019-05-21T17:07:26.384Z,12.90
2019-05-21T17:09:58.002Z,13.03
2019-05-21T17:12:29.560Z,13.87
2019-05-21T17:15:00.940Z,17.07
2019-05-21T17:17:32.300Z,14.67
2019-05-21T17:20:04.221Z,12.50
2019-05-21T17:22:35.777Z,15.13
2019-05-21T17:25:09.074Z,14.27
2019-05-21T17:27:40.913Z,15.00
2019-05-21T17:30:13.685Z,16.10
2019-05-21T17:32:48.797Z,15.70
2019-05-21T17:35:20.242Z,14.73
2019-05-21T17:37:51.574Z,14.93
2019-05-21T17:40:23.416Z,15.70
2019-05-21T17:42:55.134Z,17.20
2019-05-21T17:45:27.047Z,18.47
2019-05-21T17:47:59.519Z,16.90
2019-05-21T17:50:30.957Z,19.30
2019-05-21T17:53:02.725Z,22.30
2019-05-21T17:55:34.478Z,21.20
2019-05-21T17:58:08.100Z,23.27
2019-05-21T18:00:53.259Z,24.07
2019-05-21T18:03:25.359Z,24.03
2019-05-21T18:05:56.980Z,23.93
2019-05-21T18:08:31.724Z,23.90
2019-05-21T18:11:03.807Z,23.23
2019-05-21T18:13:36.371Z,26.13
2019-05-21T18:16:08.808Z,23.33
2019-05-21T18:18:41.362Z,26.67
2019-05-21T18:21:13.463Z,27.20
2019-05-21T18:23:45.530Z,26.70
2019-05-21T18:26:17.493Z,25.90
2019-05-21T18:28:49.120Z,25.13
2019-05-21T18:31:20.774Z,24.87
2019-05-21T18:33:52.418Z,24.20
2019-05-21T18:36:24.390Z,24.87
2019-05-21T18:38:56.320Z,23.70
2019-05-21T18:41:28.164Z,24.83
2019-05-21T18:43:59.911Z,21.77
2019-05-21T18:46:31.572Z,23.33
2019-05-21T18:49:02.895Z,22.17
2019-05-21T18:51:34.442Z,21.27
2019-05-21T18:54:06.890Z,22.37
2019-05-21T18:56:38.336Z,22.60
2019-05-21T18:59:10.158Z,22.60
2019-05-21T19:01:41.838Z,22.13
2019-05-21T19:04:14.597Z,24.13
2019-05-21T19:06:46.322Z,24.90
2019-05-21T19:09:18.392Z,24.60
2019-05-21T19:11:49.807Z,24.67
2019-05-21T19:14:21.503Z,24.03
2019-05-21T19:16:53.403Z,28.33
2019-05-21T19:19:25.325Z,29.27
2019-05-21T19:21:57.127Z,30.93
2019-05-21T19:24:29.392Z,29.07
2019-05-21T19:27:00.774Z,27.73
2019-05-21T19:29:32.104Z,28.67
2019-05-21T19:32:03.146Z,28.87
2019-05-21T19:34:34.824Z,27.40
2019-05-21T19:37:06.433Z,29.87
2019-05-21T19:39:39.698Z,27.30
2019-05-21T19:42:11.743Z,27.53
2019-05-21T19:44:43.588Z,25.47
2019-05-21T19:47:15.201Z,28.07
2019-05-21T19:49:47.161Z,26.97
2019-05-21T19:52:18.986Z,27.93
2019-05-21T19:54:50.282Z,28.07
2019-05-21T19:57:24.123Z,27.67
2019-05-21T19:59:55.674Z,26.30
2019-05-21T20:02:28.975Z,26.00
2019-05-21T20:05:00.843Z,27.13
2019-05-21T20:07:32.937Z,25.97
2019-05-21T20:10:05.320Z,25.60
2019-05-21T20:12:37.663Z,28.70
2019-05-21T20:15:09.846Z,27.63
2019-05-21T20:17:44.150Z,27.73
2019-05-21T20:20:18.513Z,26.93
2019-05-21T20:22:50.253Z,26.13
2019-05-21T20:25:23.059Z,24.67
2019-05-21T20:27:55.685Z,26.73
2019-05-21T20:30:28.171Z,23.03
2019-05-21T20:33:00.782Z,27.10
2019-05-21T20:35:34.029Z,28.60
2019-05-21T20:38:07.701Z,27.67
2019-05-21T20:40:41.175Z,29.27
2019-05-21T20:43:13.560Z,31.50
2019-05-21T20:45:47.224Z,28.37
2019-05-21T20:48:19.393Z,30.20
2019-05-21T20:50:50.985Z,29.70
2019-05-21T20:53:22.722Z,29.80
2019-05-21T20:55:55.487Z,27.53
2019-05-21T20:58:27.584Z,32.43
2019-05-21T21:01:00.779Z,28.37
2019-05-21T21:03:33.766Z,30.10
2019-05-21T21:06:06.441Z,28.90
2019-05-21T21:08:37.735Z,28.70
2019-05-21T21:11:11.042Z,25.57
2019-05-21T21:13:43.139Z,28.03
2019-05-21T21:16:14.847Z,28.20
2019-05-21T21:18:47.359Z,31.30
2019-05-21T21:21:19.076Z,29.30
2019-05-21T21:23:51.336Z,29.20
2019-05-21T21:26:23.484Z,29.47
2019-05-21T21:28:55.437Z,30.63
2019-05-21T21:31:27.189Z,32.70
2019-05-21T21:33:59.962Z,30.33
2019-05-21T21:36:31.671Z,35.53
2019-05-21T21:39:05.290Z,29.80
2019-05-21T21:41:39.110Z,31.90
2019-05-21T21:44:11.875Z,28.07
2019-05-21T21:46:43.065Z,30.50
2019-05-21T21:49:15.785Z,30.87
2019-05-21T21:51:47.653Z,29.43
2019-05-21T21:54:21.090Z,30.07
2019-05-21T21:56:52.612Z,28.67
2019-05-21T21:59:24.164Z,29.00
2019-05-21T22:02:04.172Z,33.67
2019-05-21T22:04:36.767Z,28.80
2019-05-21T22:07:08.570Z,30.47
2019-05-21T22:09:41.669Z,27.07
2019-05-21T22:12:17.558Z,27.33
2019-05-21T22:14:59.235Z,27.77
2019-05-21T22:17:31.249Z,25.60
2019-05-21T22:20:02.745Z,26.07
2019-05-21T22:22:35.606Z,27.93
2019-05-21T22:25:07.466Z,26.43
2019-05-21T22:27:39.366Z,25.40
2019-05-21T22:30:11.734Z,25.47
2019-05-21T22:32:45.044Z,22.97
2019-05-21T22:35:16.710Z,27.47
2019-05-21T22:37:48.284Z,25.03
2019-05-21T22:40:20.161Z,25.53
2019-05-21T22:42:52.155Z,28.10
2019-05-21T22:45:23.477Z,23.70
2019-05-21T22:47:54.689Z,24.90
2019-05-21T22:50:27.496Z,25.37
2019-05-21T22:52:59.473Z,23.87
2019-05-21T22:55:31.092Z,25.33
2019-05-21T22:58:02.855Z,24.03
2019-05-21T23:00:34.898Z,26.87
2019-05-21T23:03:06.795Z,27.73
2019-05-21T23:05:37.960Z,25.13
2019-05-21T23:08:10.434Z,24.47
2019-05-21T23:10:42.267Z,26.73
2019-05-21T23:13:14.029Z,25.93
2019-05-21T23:15:46.307Z,25.27
2019-05-21T23:18:19.941Z,26.33
2019-05-21T23:21:00.596Z,26.67
2019-05-21T23:23:33.712Z,26.17
2019-05-21T23:26:06.569Z,24.73
2019-05-21T23:28:38.478Z,26.33
2019-05-21T23:31:10.663Z,25.70
2019-05-21T23:33:42.276Z,26.67
2019-05-21T23:36:14.299Z,25.37
2019-05-21T23:38:46.418Z,28.80
2019-05-21T23:41:20.052Z,28.77
2019-05-21T23:43:52.858Z,28.47
2019-05-21T23:46:24.283Z,26.60
2019-05-21T23:48:56.027Z,29.37
2019-05-21T23:51:27.463Z,27.50
2019-05-21T23:53:59.319Z,30.43
2019-05-21T23:56:31.721Z,31.57
2019-05-21T23:59:05.754Z,33.30
